Time;durP1;ratioP1;P1;durP2;ratioP2;P2;SDS_P1;SDS_P2;PMS_P1;PMS_P2;Temp;Humidity;BMP_temperature;BMP_pressure;BME280_temperature;BME280_humidity;BME280_pressure;Samples;Min_cycle;Max_cycle;Signal;HPM_P1;HPM_P2
2022/01/21 00:01:56;;;;;;;9.90;1.42;;;2.70;99.90;;;;;;5023750;28;20049;-70
2022/01/21 00:04:21;;;;;;;12.55;1.92;;;2.70;99.90;;;;;;5037143;28;20072;-70
2022/01/21 00:06:47;;;;;;;12.90;2.63;;;2.70;99.90;;;;;;5046734;28;20048;-70
2022/01/21 00:09:12;;;;;;;13.05;2.20;;;2.70;99.90;;;;;;5052464;28;20049;-70
2022/01/21 00:11:40;;;;;;;12.82;2.03;;;2.70;99.90;;;;;;5036710;28;20052;-70
2022/01/21 00:14:06;;;;;;;11.88;2.70;;;2.70;99.90;;;;;;5036423;28;20596;-71
2022/01/21 00:16:34;;;;;;;12.43;2.10;;;2.70;99.90;;;;;;5035320;28;20053;-71
2022/01/21 00:19:07;;;;;;;13.45;2.88;;;2.70;99.90;;;;;;5046152;28;20140;-71
2022/01/21 00:32:32;;;;;;;14.07;3.08;;;2.60;99.90;;;;;;5045796;28;20111;-70
2022/01/21 00:34:58;;;;;;;12.85;2.60;;;2.60;99.90;;;;;;5039106;28;20053;-71
2022/01/21 00:37:24;;;;;;;12.60;2.30;;;2.60;99.90;;;;;;5041785;28;20080;-69
2022/01/21 00:39:54;;;;;;;18.00;3.05;;;2.60;99.90;;;;;;5044364;28;20048;-69
2022/01/21 00:44:46;;;;;;;10.02;1.85;;;2.70;99.90;;;;;;5054018;28;20768;-70
2022/01/21 00:47:12;;;;;;;11.05;2.35;;;2.70;99.90;;;;;;5037409;28;20037;-69
2022/01/21 00:49:37;;;;;;;12.63;2.45;;;2.70;99.90;;;;;;5035370;28;20172;-69
2022/01/21 00:52:03;;;;;;;16.15;2.33;;;2.80;99.90;;;;;;5040164;28;20045;-70
2022/01/21 00:54:29;;;;;;;12.77;2.40;;;2.70;99.90;;;;;;5041570;28;20049;-70
2022/01/21 00:56:54;;;;;;;10.55;2.28;;;2.70;99.90;;;;;;5040353;28;20033;-70
2022/01/21 00:59:20;;;;;;;14.07;2.30;;;2.70;99.90;;;;;;5037161;28;20041;-70
2022/01/21 01:01:45;;;;;;;5.90;1.50;;;2.70;99.90;;;;;;5031249;28;20053;-70
2022/01/21 01:04:11;;;;;;;12.95;2.33;;;2.70;99.90;;;;;;5045280;28;20055;-70
2022/01/21 01:06:37;;;;;;;12.45;2.35;;;2.60;99.90;;;;;;5012457;28;20046;-71
2022/01/21 01:09:03;;;;;;;11.10;2.33;;;2.60;99.90;;;;;;5037811;28;20187;-72
2022/01/21 01:22:18;;;;;;;10.60;1.95;;;2.50;99.90;;;;;;5052611;28;20475;-71
2022/01/21 01:29:54;;;;;;;12.52;2.03;;;2.50;99.90;;;;;;5034369;28;20060;-71
2022/01/21 01:32:19;;;;;;;12.05;2.33;;;2.40;99.90;;;;;;5037085;28;20056;-69
2022/01/21 01:34:45;;;;;;;12.45;2.10;;;2.40;99.90;;;;;;5017370;28;20155;-70
2022/01/21 01:37:21;;;;;;;14.30;2.55;;;2.50;99.90;;;;;;5030964;28;20107;-70
2022/01/21 01:39:58;;;;;;;11.13;2.10;;;2.50;99.90;;;;;;5049228;28;20460;-70
2022/01/21 01:50:26;;;;;;;14.73;2.13;;;2.50;99.90;;;;;;5031810;28;20113;-70
2022/01/21 01:52:51;;;;;;;14.63;2.40;;;2.60;99.90;;;;;;5041894;28;20554;-70
2022/01/21 01:55:17;;;;;;;11.27;2.13;;;2.60;99.90;;;;;;5042483;28;20337;-70
2022/01/21 01:57:43;;;;;;;10.40;1.85;;;2.60;99.90;;;;;;5038772;28;20183;-70
2022/01/21 02:00:09;;;;;;;10.88;2.15;;;2.60;99.90;;;;;;5041045;28;20079;-70
2022/01/21 02:02:34;;;;;;;12.13;1.83;;;2.60;99.90;;;;;;5029360;28;20124;-70
2022/01/21 02:05:00;;;;;;;12.07;1.98;;;2.60;99.90;;;;;;5045157;28;20099;-69
2022/01/21 02:07:25;;;;;;;9.25;1.67;;;2.60;99.90;;;;;;5040833;28;20034;-69
2022/01/21 02:09:51;;;;;;;10.43;2.10;;;2.60;99.90;;;;;;5043603;28;20037;-69
2022/01/21 02:12:16;;;;;;;14.15;1.98;;;2.60;99.90;;;;;;5036903;28;20052;-69
2022/01/21 02:14:49;;;;;;;8.13;1.45;;;2.60;99.90;;;;;;5040248;28;20057;-69
2022/01/21 02:22:43;;;;;;;13.93;1.92;;;2.60;99.90;;;;;;5045229;28;20059;-69
2022/01/21 02:25:17;;;;;;;8.65;1.83;;;2.70;99.90;;;;;;5034539;28;20044;-69
2022/01/21 02:27:48;;;;;;;12.05;2.15;;;2.60;99.90;;;;;;5045736;28;20064;-69
2022/01/21 02:30:18;;;;;;;9.68;1.60;;;2.70;99.90;;;;;;5050514;28;20370;-69
2022/01/21 02:32:49;;;;;;;11.48;1.88;;;2.70;99.90;;;;;;5044092;28;20090;-69
2022/01/21 02:35:16;;;;;;;8.07;1.63;;;2.70;99.90;;;;;;5047045;28;20072;-69
2022/01/21 02:37:43;;;;;;;14.50;2.00;;;2.70;99.90;;;;;;5042444;28;20041;-69
2022/01/21 02:40:11;;;;;;;11.82;1.92;;;2.60;99.90;;;;;;5037407;28;20071;-69
2022/01/21 02:42:36;;;;;;;8.25;1.55;;;2.60;99.90;;;;;;5045434;28;20049;-69
2022/01/21 02:45:04;;;;;;;10.23;1.42;;;2.60;99.90;;;;;;5033289;28;20350;-69
2022/01/21 02:47:30;;;;;;;14.02;1.70;;;2.60;99.90;;;;;;5043508;28;20056;-69
2022/01/21 02:49:55;;;;;;;7.75;1.45;;;2.60;99.90;;;;;;5048939;28;20120;-70
2022/01/21 02:52:24;;;;;;;10.80;1.50;;;2.60;99.90;;;;;;5045784;28;20373;-70
2022/01/21 02:54:50;;;;;;;7.55;1.58;;;2.60;99.90;;;;;;5048990;28;20124;-70
2022/01/21 02:57:16;;;;;;;11.98;1.45;;;2.50;99.90;;;;;;5042358;28;20187;-71
2022/01/21 02:59:41;;;;;;;9.70;1.35;;;2.50;99.90;;;;;;5044384;28;20053;-70
2022/01/21 03:02:07;;;;;;;8.90;1.52;;;2.50;99.90;;;;;;5037699;28;20465;-70
2022/01/21 03:04:43;;;;;;;9.05;1.65;;;2.50;99.90;;;;;;5035043;28;20040;-70
2022/01/21 03:07:09;;;;;;;7.10;1.33;;;2.50;99.90;;;;;;5035602;28;20049;-70
2022/01/21 03:09:34;;;;;;;12.73;1.83;;;2.50;99.90;;;;;;5041426;28;20063;-70
2022/01/21 03:12:00;;;;;;;6.15;1.23;;;2.50;99.90;;;;;;5039365;28;20169;-70
2022/01/21 03:14:25;;;;;;;8.38;1.50;;;2.50;99.90;;;;;;5037494;28;20497;-70
2022/01/21 03:16:52;;;;;;;8.38;1.40;;;2.50;99.90;;;;;;5038761;28;20560;-71
2022/01/21 03:19:17;;;;;;;9.65;1.63;;;2.50;99.90;;;;;;5035692;28;20049;-70
2022/01/21 03:21:44;;;;;;;8.43;1.30;;;2.50;99.90;;;;;;5035733;28;20044;-70
2022/01/21 03:24:09;;;;;;;10.43;1.85;;;2.50;99.90;;;;;;5035354;28;20040;-70
2022/01/21 03:26:35;;;;;;;13.05;2.10;;;2.50;99.90;;;;;;5042060;28;20482;-70
2022/01/21 03:29:03;;;;;;;9.10;1.30;;;2.40;99.90;;;;;;5048518;28;20469;-70
2022/01/21 03:31:31;;;;;;;9.57;1.70;;;2.40;99.90;;;;;;5043900;28;20531;-70
2022/01/21 03:33:59;;;;;;;13.70;1.70;;;2.40;99.90;;;;;;5049633;28;20489;-70
2022/01/21 03:36:29;;;;;;;10.73;1.88;;;2.40;99.90;;;;;;5047930;28;20124;-70
2022/01/21 03:38:55;;;;;;;7.85;1.65;;;2.40;99.90;;;;;;5047807;28;20049;-70
2022/01/21 03:41:20;;;;;;;10.27;1.65;;;2.40;99.90;;;;;;5049400;28;20515;-70
2022/01/21 03:43:47;;;;;;;12.23;1.40;;;2.40;99.90;;;;;;5051115;28;20388;-70
2022/01/21 03:46:13;;;;;;;8.18;1.40;;;2.40;99.90;;;;;;5052982;28;20096;-70
2022/01/21 03:48:39;;;;;;;8.88;1.52;;;2.40;99.90;;;;;;5043185;28;20579;-70
2022/01/21 03:51:05;;;;;;;9.95;1.77;;;2.40;99.90;;;;;;5029111;28;20148;-70
2022/01/21 03:53:31;;;;;;;8.65;1.92;;;2.30;99.90;;;;;;5041315;28;20752;-70
2022/01/21 03:55:56;;;;;;;12.68;2.00;;;2.30;99.90;;;;;;5033515;28;20072;-70
2022/01/21 03:58:22;;;;;;;11.35;1.70;;;2.30;99.90;;;;;;5038806;28;20045;-70
2022/01/21 04:00:54;;;;;;;9.38;1.83;;;2.30;99.90;;;;;;5037425;28;20050;-70
2022/01/21 04:03:21;;;;;;;12.57;1.77;;;2.30;99.90;;;;;;5042828;28;20050;-70
2022/01/21 04:05:47;;;;;;;8.40;1.55;;;2.30;99.90;;;;;;5045955;28;20090;-69
2022/01/21 04:08:13;;;;;;;8.98;1.50;;;2.30;99.90;;;;;;5042028;28;20037;-70
2022/01/21 04:10:42;;;;;;;16.08;1.95;;;2.40;99.90;;;;;;5036590;28;20065;-70
2022/01/21 04:13:14;;;;;;;8.73;1.65;;;2.30;99.90;;;;;;5044466;28;20028;-70
2022/01/21 04:15:42;;;;;;;11.27;1.73;;;2.30;99.90;;;;;;5040211;28;20071;-70
2022/01/21 04:18:07;;;;;;;10.23;1.67;;;2.40;99.90;;;;;;5044297;28;20072;-70
2022/01/21 04:20:33;;;;;;;8.77;1.80;;;2.40;99.90;;;;;;5019132;28;20123;-70
2022/01/21 04:22:58;;;;;;;8.85;1.55;;;2.30;99.90;;;;;;5040340;28;20083;-70
2022/01/21 04:25:24;;;;;;;11.30;1.55;;;2.40;99.90;;;;;;5045567;28;20048;-70
2022/01/21 04:27:50;;;;;;;9.30;1.30;;;2.30;99.90;;;;;;5042166;28;20037;-70
2022/01/21 04:30:16;;;;;;;11.18;1.52;;;2.30;99.90;;;;;;5044998;28;20072;-70
2022/01/21 04:32:42;;;;;;;9.63;1.30;;;2.30;99.90;;;;;;5034162;28;20058;-70
2022/01/21 04:35:07;;;;;;;11.57;1.77;;;2.30;99.90;;;;;;5042988;28;20437;-70
2022/01/21 04:37:33;;;;;;;10.25;1.50;;;2.30;99.90;;;;;;5042255;28;20113;-70
2022/01/21 04:40:10;;;;;;;7.97;1.80;;;2.30;99.90;;;;;;5036746;28;20036;-70
2022/01/21 04:48:05;;;;;;;11.27;1.45;;;2.30;99.90;;;;;;5036656;28;20056;-70
2022/01/21 04:50:39;;;;;;;8.48;1.20;;;2.30;99.90;;;;;;5042963;28;20045;-69
2022/01/21 04:53:05;;;;;;;11.23;1.83;;;2.30;99.90;;;;;;5039425;28;20075;-70
2022/01/21 04:55:31;;;;;;;8.40;1.58;;;2.40;99.90;;;;;;5043354;28;20304;-70
2022/01/21 04:57:57;;;;;;;5.32;1.52;;;2.30;99.90;;;;;;5031644;28;20099;-70
2022/01/21 05:00:22;;;;;;;7.20;1.42;;;2.40;99.90;;;;;;5044151;28;20069;-70
2022/01/21 05:02:48;;;;;;;8.93;1.27;;;2.40;99.90;;;;;;5036572;28;20042;-69
2022/01/21 05:05:13;;;;;;;8.40;1.90;;;2.40;99.90;;;;;;5037164;28;20041;-70
2022/01/21 05:07:40;;;;;;;10.60;1.50;;;2.40;99.90;;;;;;5031895;28;20135;-69
2022/01/21 05:10:07;;;;;;;6.40;1.20;;;2.40;99.90;;;;;;5040786;28;20553;-70
2022/01/21 05:12:33;;;;;;;7.63;1.10;;;2.40;99.90;;;;;;5046428;28;21065;-70
2022/01/21 05:17:25;;;;;;;11.63;1.50;;;2.50;99.90;;;;;;5042846;28;20080;-70
2022/01/21 05:19:52;;;;;;;8.70;1.60;;;2.50;99.90;;;;;;5041152;28;20045;-69
2022/01/21 05:22:18;;;;;;;9.40;1.70;;;2.50;99.90;;;;;;5046242;28;20140;-70
2022/01/21 05:24:44;;;;;;;10.82;1.77;;;2.40;99.90;;;;;;5038211;28;20072;-70
2022/01/21 05:27:12;;;;;;;11.32;1.27;;;2.50;99.90;;;;;;5038645;28;20073;-70
2022/01/21 05:29:38;;;;;;;9.70;1.90;;;2.50;99.90;;;;;;5037361;28;20132;-70
2022/01/21 05:32:05;;;;;;;14.88;2.25;;;2.50;99.90;;;;;;5043564;28;20153;-70
2022/01/21 05:34:31;;;;;;;12.05;1.80;;;2.50;99.90;;;;;;5030395;28;20040;-69
2022/01/21 05:36:57;;;;;;;12.18;1.70;;;2.50;99.90;;;;;;5040675;28;20041;-70
2022/01/21 05:39:22;;;;;;;11.30;2.10;;;2.40;99.90;;;;;;5031944;28;20052;-70
2022/01/21 05:41:51;;;;;;;8.55;1.27;;;2.50;99.90;;;;;;5038205;28;20067;-70
2022/01/21 05:46:23;;;;;;;10.02;1.25;;;2.50;99.90;;;;;;5041010;28;20072;-70
2022/01/21 05:47:07;;;;;;;10.90;1.60;;;2.40;99.90;;;;;;5047036;28;20057;-70
2022/01/21 05:49:35;;;;;;;7.78;1.23;;;2.50;99.90;;;;;;5039523;28;20128;-70
2022/01/21 05:52:08;;;;;;;5.40;1.60;;;2.40;99.90;;;;;;5042694;28;20048;-70
2022/01/21 05:54:33;;;;;;;11.82;1.63;;;2.40;99.90;;;;;;5041974;28;20102;-70
2022/01/21 05:57:01;;;;;;;9.20;1.60;;;2.40;99.90;;;;;;5035669;28;20049;-69
2022/01/21 05:59:27;;;;;;;6.82;1.15;;;2.40;99.90;;;;;;5043755;28;20048;-71
2022/01/21 06:01:53;;;;;;;11.15;1.80;;;2.40;99.90;;;;;;5039329;28;20045;-71
2022/01/21 06:04:18;;;;;;;16.33;1.70;;;2.40;99.90;;;;;;5045192;28;20053;-71
2022/01/21 06:06:44;;;;;;;10.90;1.60;;;2.40;99.90;;;;;;5037505;28;20430;-71
2022/01/21 06:09:09;;;;;;;12.43;2.50;;;2.40;99.90;;;;;;5049894;28;20048;-71
2022/01/21 06:11:35;;;;;;;10.30;1.92;;;2.40;99.90;;;;;;5046416;28;20041;-71
2022/01/21 06:14:02;;;;;;;15.77;2.83;;;2.40;99.90;;;;;;5044154;28;20042;-71
2022/01/21 06:16:28;;;;;;;11.30;3.22;;;2.40;99.90;;;;;;5041339;28;20045;-70
2022/01/21 06:18:54;;;;;;;10.60;3.20;;;2.40;99.90;;;;;;5044463;28;20111;-70
2022/01/21 06:21:20;;;;;;;11.95;2.08;;;2.30;99.90;;;;;;5048228;28;20048;-70
2022/01/21 06:23:57;;;;;;;8.13;1.60;;;2.40;99.90;;;;;;5043171;28;20131;-70
2022/01/21 06:26:25;;;;;;;9.98;1.60;;;2.30;99.90;;;;;;5041472;28;20052;-70
2022/01/21 06:28:50;;;;;;;10.35;1.52;;;2.30;99.90;;;;;;5045138;28;20033;-70
2022/01/21 06:31:16;;;;;;;13.02;1.50;;;2.30;99.90;;;;;;5049662;28;20525;-71
2022/01/21 06:33:42;;;;;;;10.05;1.75;;;2.30;99.90;;;;;;5046817;28;20057;-70
2022/01/21 06:36:07;;;;;;;7.47;1.10;;;2.30;99.90;;;;;;5046474;28;20033;-70
2022/01/21 06:38:35;;;;;;;7.95;1.67;;;2.30;99.90;;;;;;5048898;28;20109;-70
2022/01/21 06:41:01;;;;;;;10.15;1.40;;;2.40;99.90;;;;;;5046046;28;20111;-72
2022/01/21 06:43:27;;;;;;;9.18;1.40;;;2.40;99.90;;;;;;5047546;28;20057;-72
2022/01/21 06:45:53;;;;;;;7.18;1.20;;;2.40;99.90;;;;;;5041872;28;20048;-71
2022/01/21 06:48:18;;;;;;;6.72;1.20;;;2.50;99.90;;;;;;5048650;28;20495;-71
2022/01/21 06:50:44;;;;;;;7.70;1.42;;;2.50;99.90;;;;;;5045749;28;20045;-73
2022/01/21 06:53:09;;;;;;;8.18;1.50;;;2.50;99.90;;;;;;5041101;28;20953;-72
2022/01/21 06:55:36;;;;;;;9.32;1.63;;;2.50;99.90;;;;;;5042143;28;20206;-72
2022/01/21 06:58:02;;;;;;;7.90;1.40;;;2.50;99.90;;;;;;5043650;28;20057;-72
2022/01/21 07:00:28;;;;;;;8.15;1.50;;;2.50;99.90;;;;;;5035931;28;20045;-72
2022/01/21 07:02:54;;;;;;;9.73;1.80;;;2.50;99.90;;;;;;5038108;28;20119;-70
2022/01/21 07:05:22;;;;;;;7.55;1.23;;;2.60;99.90;;;;;;5046108;28;20153;-70
2022/01/21 07:07:48;;;;;;;7.65;1.42;;;2.60;99.90;;;;;;5040108;28;20180;-73
2022/01/21 07:10:15;;;;;;;8.52;1.40;;;2.60;99.90;;;;;;5046027;28;20085;-71
2022/01/21 07:12:42;;;;;;;9.60;2.10;;;2.60;99.90;;;;;;5042515;28;20049;-70
2022/01/21 07:15:09;;;;;;;9.80;1.60;;;2.60;99.90;;;;;;5050794;28;20029;-69
2022/01/21 07:17:35;;;;;;;7.72;1.98;;;2.60;99.90;;;;;;5046769;28;20045;-70
2022/01/21 07:20:03;;;;;;;8.80;1.38;;;2.60;99.90;;;;;;5040612;28;20046;-68
2022/01/21 07:22:29;;;;;;;8.10;1.55;;;2.60;99.90;;;;;;5044853;28;20045;-69
2022/01/21 07:24:54;;;;;;;8.00;1.40;;;2.50;99.90;;;;;;5045462;28;20041;-71
2022/01/21 07:27:20;;;;;;;7.88;1.20;;;2.50;99.90;;;;;;5050793;28;20129;-68
2022/01/21 07:29:45;;;;;;;5.35;1.20;;;2.50;99.90;;;;;;5054991;28;20488;-69
2022/01/21 07:32:11;;;;;;;9.50;1.50;;;2.50;99.90;;;;;;5050682;28;20048;-71
2022/01/21 07:34:36;;;;;;;6.45;1.40;;;2.50;99.90;;;;;;5045735;28;20060;-70
2022/01/21 07:37:02;;;;;;;10.13;1.80;;;2.50;99.90;;;;;;5054461;28;20041;-67
2022/01/21 07:39:28;;;;;;;11.93;1.80;;;2.40;99.90;;;;;;5053134;28;20040;-67
2022/01/21 07:41:54;;;;;;;9.27;1.85;;;2.40;99.90;;;;;;5050023;28;20120;-67
2022/01/21 07:44:20;;;;;;;10.05;2.20;;;2.40;99.90;;;;;;5050579;28;20053;-68
2022/01/21 07:46:46;;;;;;;14.82;2.03;;;2.50;99.90;;;;;;5052468;28;20348;-68
2022/01/21 07:49:12;;;;;;;12.13;2.00;;;2.50;99.90;;;;;;5047742;28;20570;-68
2022/01/21 07:51:38;;;;;;;8.07;2.08;;;2.50;99.90;;;;;;5051254;28;20044;-67
2022/01/21 07:54:04;;;;;;;12.20;1.85;;;2.50;99.90;;;;;;5049595;28;20087;-67
2022/01/21 07:56:33;;;;;;;11.90;2.30;;;2.50;99.90;;;;;;5046508;28;20120;-66
2022/01/21 07:58:59;;;;;;;12.57;1.70;;;2.50;99.90;;;;;;5052076;28;20116;-67
2022/01/21 08:01:28;;;;;;;11.85;1.73;;;2.60;99.90;;;;;;5050649;28;20063;-67
2022/01/21 08:03:54;;;;;;;12.20;2.10;;;2.60;99.90;;;;;;5051336;28;20048;-67
2022/01/21 08:06:19;;;;;;;8.55;1.83;;;2.60;99.90;;;;;;5053415;28;20807;-70
2022/01/21 08:08:45;;;;;;;9.63;1.63;;;2.60;99.90;;;;;;5040359;28;20583;-67
2022/01/21 08:11:11;;;;;;;13.27;3.30;;;2.70;99.90;;;;;;5049610;28;20043;-67
2022/01/21 08:13:36;;;;;;;9.40;2.10;;;2.70;99.90;;;;;;5046703;28;20041;-69
2022/01/21 08:16:02;;;;;;;11.40;2.42;;;2.70;99.90;;;;;;5045168;28;20045;-67
2022/01/21 08:18:27;;;;;;;13.30;1.90;;;2.70;99.90;;;;;;5044167;28;20392;-68
2022/01/21 08:20:53;;;;;;;11.00;1.80;;;2.80;99.90;;;;;;5045543;28;20044;-68
2022/01/21 08:23:19;;;;;;;12.88;2.20;;;2.70;99.90;;;;;;5031716;28;20108;-68
2022/01/21 08:25:45;;;;;;;13.88;1.90;;;2.80;99.90;;;;;;5046405;28;20053;-70
2022/01/21 08:28:11;;;;;;;12.88;2.13;;;2.80;99.90;;;;;;5046641;28;20073;-70
2022/01/21 08:30:37;;;;;;;12.05;1.90;;;2.80;99.90;;;;;;5047335;28;20053;-69
2022/01/21 08:33:03;;;;;;;16.55;2.75;;;2.80;99.90;;;;;;5036786;28;20089;-69
2022/01/21 08:35:28;;;;;;;12.50;2.53;;;2.80;99.90;;;;;;5035501;28;20117;-67
2022/01/21 08:37:54;;;;;;;16.40;2.85;;;2.80;99.90;;;;;;5038443;28;20041;-69
2022/01/21 08:40:22;;;;;;;12.52;2.60;;;2.90;99.90;;;;;;5047712;28;20159;-68
2022/01/21 08:42:47;;;;;;;14.95;3.22;;;2.90;99.90;;;;;;5057214;28;20181;-69
2022/01/21 08:45:14;;;;;;;14.88;2.45;;;3.00;99.90;;;;;;5045709;28;20476;-69
2022/01/21 08:47:41;;;;;;;12.13;2.17;;;3.00;99.90;;;;;;5053632;28;20042;-69
2022/01/21 08:50:09;;;;;;;11.32;2.03;;;3.00;99.90;;;;;;5044638;28;20116;-69
2022/01/21 08:52:37;;;;;;;11.88;2.50;;;3.10;99.90;;;;;;5039179;28;20045;-68
2022/01/21 08:55:08;;;;;;;15.93;2.60;;;3.10;99.90;;;;;;5041798;28;20138;-67
2022/01/21 08:57:36;;;;;;;15.05;2.78;;;3.10;99.90;;;;;;5049407;28;20045;-68
2022/01/21 09:00:04;;;;;;;11.65;2.55;;;3.10;99.90;;;;;;5050711;28;20083;-67
2022/01/21 09:02:30;;;;;;;14.38;2.70;;;3.20;99.90;;;;;;5048940;28;20093;-67
2022/01/21 09:04:55;;;;;;;13.02;2.72;;;3.20;99.90;;;;;;5042005;28;20091;-67
2022/01/21 09:07:22;;;;;;;12.38;2.50;;;3.30;99.90;;;;;;5042065;28;20048;-68
2022/01/21 09:09:47;;;;;;;11.48;2.70;;;3.40;99.90;;;;;;5049079;28;20372;-67
2022/01/21 09:12:13;;;;;;;15.98;2.97;;;3.50;99.90;;;;;;5048033;28;20064;-66
2022/01/21 09:14:39;;;;;;;13.02;3.17;;;3.60;99.90;;;;;;5040913;28;20497;-69
2022/01/21 09:17:04;;;;;;;14.88;3.80;;;3.70;99.90;;;;;;5047682;28;20037;-67
2022/01/21 09:19:32;;;;;;;20.60;5.40;;;3.80;99.90;;;;;;5039478;28;20040;-68
2022/01/21 09:21:59;;;;;;;21.63;4.90;;;3.80;99.90;;;;;;5043729;28;20049;-67
2022/01/21 09:24:25;;;;;;;21.52;7.13;;;3.80;99.90;;;;;;5044690;28;20048;-66
2022/01/21 09:26:50;;;;;;;26.85;9.00;;;3.90;99.90;;;;;;5047405;28;20045;-67
2022/01/21 09:29:17;;;;;;;30.77;9.52;;;3.90;99.90;;;;;;5053015;28;20120;-66
2022/01/21 09:31:43;;;;;;;26.63;10.68;;;3.90;99.90;;;;;;5048738;28;20057;-66
2022/01/21 09:34:09;;;;;;;34.97;10.43;;;3.90;99.90;;;;;;5047666;28;20532;-66
2022/01/21 09:36:35;;;;;;;28.20;9.98;;;3.90;99.90;;;;;;5051126;28;20443;-67
2022/01/21 09:39:02;;;;;;;35.10;12.48;;;3.90;99.90;;;;;;5049598;28;20144;-66
2022/01/21 09:41:29;;;;;;;36.28;12.60;;;3.90;99.90;;;;;;5049857;28;20044;-69
2022/01/21 09:43:56;;;;;;;33.13;11.85;;;4.00;99.90;;;;;;5050259;28;20060;-67
2022/01/21 09:46:33;;;;;;;37.00;11.88;;;4.00;99.90;;;;;;5050042;28;20037;-67
2022/01/21 09:49:25;;;;;;;31.73;10.27;;;4.00;99.90;;;;;;5049397;28;20047;-67
2022/01/21 09:51:52;;;;;;;19.15;5.75;;;4.10;99.90;;;;;;5051654;28;20033;-67
2022/01/21 09:54:18;;;;;;;17.92;5.72;;;4.20;99.90;;;;;;5049190;28;20052;-67
2022/01/21 09:56:46;;;;;;;22.15;6.32;;;4.20;99.90;;;;;;5046991;28;20056;-67
2022/01/21 09:59:16;;;;;;;20.77;5.95;;;4.30;99.90;;;;;;5048596;28;20463;-69
2022/01/21 10:01:42;;;;;;;19.48;6.03;;;4.30;99.90;;;;;;5048582;28;20122;-68
2022/01/21 10:04:08;;;;;;;24.10;7.15;;;4.40;99.90;;;;;;5050730;28;20033;-68
2022/01/21 10:06:35;;;;;;;23.60;7.10;;;4.50;99.90;;;;;;5049011;28;20091;-68
2022/01/21 10:09:02;;;;;;;18.88;5.85;;;4.50;99.90;;;;;;5047767;28;20495;-66
2022/01/21 10:11:28;;;;;;;24.63;6.68;;;4.60;99.90;;;;;;5050725;28;20140;-67
2022/01/21 10:13:53;;;;;;;17.05;4.75;;;4.60;99.90;;;;;;5052121;28;20127;-67
2022/01/21 10:16:19;;;;;;;24.05;4.78;;;4.70;99.90;;;;;;5049944;28;20088;-67
2022/01/21 10:19:06;;;;;;;14.18;3.78;;;4.70;99.90;;;;;;5045634;28;20536;-67
2022/01/21 10:21:37;;;;;;;17.20;2.70;;;4.80;99.90;;;;;;5041123;28;20472;-67
2022/01/21 10:24:14;;;;;;;19.88;3.00;;;4.80;99.90;;;;;;5046641;28;20060;-68
2022/01/21 10:26:51;;;;;;;19.95;2.80;;;4.80;99.90;;;;;;5048624;28;20052;-68
2022/01/21 10:29:17;;;;;;;18.30;3.20;;;4.90;99.90;;;;;;5047216;28;20091;-68
2022/01/21 10:31:58;;;;;;;18.80;3.70;;;4.90;99.90;;;;;;5048650;28;20060;-67
2022/01/21 10:34:39;;;;;;;17.70;4.13;;;5.00;99.90;;;;;;5046247;28;20044;-68
2022/01/21 10:37:27;;;;;;;22.80;4.55;;;5.00;99.90;;;;;;5042765;28;20127;-69
2022/01/21 10:40:05;;;;;;;18.38;4.55;;;5.10;99.90;;;;;;5047460;28;20056;-67
2022/01/21 10:42:31;;;;;;;16.38;4.05;;;5.10;99.90;;;;;;5056926;28;20049;-68
2022/01/21 10:44:59;;;;;;;14.88;3.95;;;5.30;99.90;;;;;;5051926;28;20472;-68
2022/01/21 10:47:33;;;;;;;16.42;3.00;;;5.40;99.90;;;;;;5049472;28;20135;-67
2022/01/21 10:50:01;;;;;;;18.35;4.15;;;5.50;99.90;;;;;;5051831;28;20049;-67
2022/01/21 10:52:31;;;;;;;18.60;3.75;;;5.70;99.90;;;;;;5048143;28;20052;-67
2022/01/21 10:54:57;;;;;;;15.07;3.47;;;5.70;99.90;;;;;;5051791;28;20086;-68
2022/01/21 10:57:22;;;;;;;17.80;3.35;;;5.80;99.90;;;;;;5051235;28;20041;-68
2022/01/21 10:59:54;;;;;;;18.60;3.80;;;5.80;99.90;;;;;;5051923;28;20152;-68
2022/01/21 11:02:35;;;;;;;15.77;3.15;;;5.90;99.90;;;;;;5047609;28;20158;-67
2022/01/21 11:05:15;;;;;;;16.77;3.45;;;6.00;99.90;;;;;;5046640;28;20378;-68
2022/01/21 11:07:46;;;;;;;19.85;3.10;;;6.10;99.90;;;;;;5047315;28;20063;-68
2022/01/21 11:10:37;;;;;;;15.32;2.15;;;6.20;99.90;;;;;;5046657;28;20055;-68
2022/01/21 11:13:24;;;;;;;19.08;3.53;;;6.40;99.90;;;;;;5050471;28;20045;-72
2022/01/21 11:15:58;;;;;;;13.23;2.40;;;6.50;99.90;;;;;;5040186;28;20053;-71
2022/01/21 11:18:30;;;;;;;14.27;2.17;;;6.50;99.90;;;;;;5049998;28;20119;-70
2022/01/21 11:21:06;;;;;;;13.43;3.13;;;6.60;99.90;;;;;;5055257;28;20045;-68
2022/01/21 11:23:33;;;;;;;10.10;2.15;;;6.70;99.90;;;;;;5038899;28;20071;-67
2022/01/21 11:26:03;;;;;;;12.05;2.10;;;6.80;99.90;;;;;;5047962;28;20162;-68
2022/01/21 11:28:49;;;;;;;14.23;2.40;;;6.90;99.90;;;;;;5043348;28;20425;-69
2022/01/21 11:31:18;;;;;;;10.60;1.90;;;6.90;99.90;;;;;;5045442;28;20045;-69
2022/01/21 11:33:44;;;;;;;12.45;2.00;;;6.90;99.90;;;;;;5037829;28;20045;-69
2022/01/21 11:36:10;;;;;;;11.65;2.33;;;7.00;99.90;;;;;;5035124;28;20075;-69
2022/01/21 11:38:40;;;;;;;9.80;2.03;;;6.90;99.90;;;;;;5035833;28;20045;-72
2022/01/21 11:41:08;;;;;;;13.25;2.92;;;6.90;99.90;;;;;;5044910;28;20045;-70
2022/01/21 11:43:36;;;;;;;11.32;2.13;;;6.90;99.90;;;;;;5040981;28;20037;-68
2022/01/21 11:46:40;;;;;;;18.80;2.83;;;6.90;99.90;;;;;;5050863;28;20044;-69
2022/01/21 11:48:58;;;;;;;15.68;2.47;;;6.90;99.90;;;;;;5045701;28;20049;-69
2022/01/21 11:51:26;;;;;;;14.70;3.00;;;6.90;99.90;;;;;;5046689;28;20053;-68
2022/01/21 11:53:58;;;;;;;17.75;2.47;;;6.90;99.90;;;;;;5046227;28;20095;-69
2022/01/21 11:56:39;;;;;;;13.93;2.72;;;6.90;99.90;;;;;;5052559;28;20429;-68
2022/01/21 11:59:19;;;;;;;9.75;2.72;;;6.90;99.90;;;;;;5046211;28;20481;-69
2022/01/21 12:01:48;;;;;;;17.65;2.83;;;6.90;99.90;;;;;;5041132;28;20049;-71
2022/01/21 12:04:41;;;;;;;14.00;2.38;;;6.90;99.90;;;;;;5043399;28;20041;-68
2022/01/21 12:07:44;;;;;;;12.48;1.95;;;6.90;99.90;;;;;;5050656;28;20041;-68
2022/01/21 12:10:25;;;;;;;18.73;2.72;;;6.90;99.90;;;;;;5044998;28;20052;-68
2022/01/21 12:13:00;;;;;;;13.23;2.03;;;6.90;99.90;;;;;;5049199;28;20057;-67
2022/01/21 12:15:35;;;;;;;;;;;6.90;99.90;;;;;;5048203;28;20041;-68
2022/01/21 12:18:20;;;;;;;10.43;2.20;;;6.90;99.90;;;;;;5047078;28;20032;-69
2022/01/21 12:20:47;;;;;;;15.52;2.50;;;6.80;99.90;;;;;;5054130;28;20045;-69
2022/01/21 12:23:18;;;;;;;17.30;2.22;;;6.80;99.90;;;;;;5043597;28;20068;-69
2022/01/21 12:26:08;;;;;;;15.02;2.50;;;6.80;99.90;;;;;;5052088;28;20052;-69
2022/01/21 12:28:35;;;;;;;12.32;2.03;;;6.80;99.90;;;;;;5049754;28;20094;-69
2022/01/21 12:31:00;;;;;;;11.43;1.80;;;6.80;99.90;;;;;;5049956;28;20121;-70
2022/01/21 12:33:52;;;;;;;12.93;1.90;;;6.80;99.90;;;;;;5048553;28;20197;-69
2022/01/21 12:36:20;;;;;;;10.20;2.22;;;6.80;99.90;;;;;;5049224;28;20076;-69
2022/01/21 12:41:18;;;;;;;14.10;2.17;;;6.80;99.90;;;;;;5032330;28;20539;-70
2022/01/21 12:43:51;;;;;;;16.45;2.50;;;6.80;99.90;;;;;;5047741;28;20040;-70
2022/01/21 12:46:17;;;;;;;15.30;2.65;;;6.90;99.90;;;;;;5050985;28;20036;-70
2022/01/21 12:48:46;;;;;;;11.63;1.70;;;7.00;99.90;;;;;;5062523;28;20041;-69
2022/01/21 12:51:15;;;;;;;11.25;1.90;;;7.00;99.90;;;;;;5040555;28;20099;-69
2022/01/21 12:55:55;;;;;;;15.68;2.70;;;7.00;99.90;;;;;;5046600;28;20166;-69
2022/01/21 12:57:00;;;;;;;15.27;2.15;;;7.00;99.90;;;;;;5041661;28;20084;-69
2022/01/21 12:59:28;;;;;;;9.77;1.80;;;7.10;99.90;;;;;;5042781;28;20126;-69
2022/01/21 13:02:00;;;;;;;16.73;2.15;;;7.10;99.90;;;;;;5036861;28;20084;-69
2022/01/21 13:04:54;;;;;;;14.60;2.30;;;7.10;99.90;;;;;;5037126;28;20071;-69
2022/01/21 13:07:31;;;;;;;12.48;2.40;;;7.10;99.90;;;;;;5043845;28;20081;-70
2022/01/21 13:10:21;;;;;;;17.98;2.67;;;7.10;99.90;;;;;;5047769;28;20049;-69
2022/01/21 13:13:22;;;;;;;15.65;2.50;;;7.00;99.90;;;;;;5043141;28;20091;-69
2022/01/21 13:15:55;;;;;;;11.43;2.08;;;7.00;99.90;;;;;;5049361;28;20049;-70
2022/01/21 13:18:36;;;;;;;14.65;2.95;;;7.00;99.90;;;;;;5048936;28;20120;-69
2022/01/21 13:21:06;;;;;;;16.10;3.00;;;7.00;99.90;;;;;;5049414;28;20049;-69
2022/01/21 13:23:40;;;;;;;15.57;2.65;;;7.00;99.90;;;;;;5044203;28;20378;-69
2022/01/21 13:26:36;;;;;;;16.13;3.30;;;7.00;99.90;;;;;;5048533;28;20117;-68
2022/01/21 13:29:10;;;;;;;16.15;3.22;;;7.00;99.90;;;;;;5043836;28;20128;-70
2022/01/21 13:31:52;;;;;;;12.73;2.90;;;7.00;99.90;;;;;;5043843;28;20037;-70
2022/01/21 13:34:36;;;;;;;16.95;3.03;;;7.00;99.90;;;;;;5048348;28;20565;-70
2022/01/21 13:37:06;;;;;;;17.65;2.72;;;7.00;99.90;;;;;;5047182;28;20052;-69
2022/01/21 13:39:36;;;;;;;15.55;2.90;;;7.00;99.90;;;;;;5048941;28;20045;-69
2022/01/21 13:42:11;;;;;;;19.98;3.28;;;7.00;99.90;;;;;;5048183;28;20076;-70
2022/01/21 13:44:48;;;;;;;15.75;2.55;;;7.00;99.90;;;;;;5046299;28;20032;-69
2022/01/21 13:47:33;;;;;;;13.20;2.25;;;7.00;99.90;;;;;;5048485;28;20029;-69
2022/01/21 13:50:11;;;;;;;13.52;2.63;;;7.00;99.90;;;;;;5048043;28;20036;-69
2022/01/21 13:52:51;;;;;;;15.73;2.45;;;7.10;99.90;;;;;;5045100;28;20445;-70
2022/01/21 13:55:40;;;;;;;12.93;2.55;;;7.10;99.90;;;;;;5042907;28;20151;-70